Cordeiro, Brazil
Current Conditions -  °F | °C
As of 4:00 AM on Thursday 23 Oct 2014 (Local Time) from SBME Reporting Station
Clear Clear  
Wind Chill: 61°   Ceiling: Unl
Heat Index: 61°   Visibility: 6mi
Dew Point: 59°   Wind: 3mph
Humidity: 94%   Direction: 320°NW
Pressure: 30.15"   Gusts: NA
Location:  22.03°S, 42.36°W
Report Text: SBME 230600Z 32003KT CAVOK 16/15 Q1021
Loading
Personal Weather Stations






























Interactive Weather Map
Tropical Storm Tracking
New forecast layout! Learn more

10-Day Weather Forecast

Advertisements
Track Severe Weather on mobile